Southwest Florida International Airport
KRSW : now visible

Airfield :











YOU CAN JOIN US ON...

 
LOGIN :

Register | Disclaimer

   EN    FR    IT 

 









Legend :    VFR   Marginal VFR   IFR   Intensive IFR   Very Intensive IFR
Visi :
Ceiling :
>= 8 km
>= 3000ft
5 to 8 km
1000 to 3000 ft
1500m to 5 km
500 to 1000 ft
800 to 1500m
200 to 500 ft
< 800m
< 200 ft
Symbols :   Thunderstorms  Fog  Heavy snow  Heavy precipitations  Wind > 20 kt







- Airport Elevation : 30 ft
- IATA code : RSW


KRSW - Southwest Florida International

CURRENT METAR :
  • 160553Z AUTO 00000KT 10SM CLR 26/23 A2995 RMK AO2 SLP139 T02560228 10272 20250 56002

EXPIRED METARs :
  • 160453Z AUTO 00000KT 10SM CLR 26/23 A2995 RMK AO2 SLP139 T02560228 403220250
  • 160353Z 00000KT 10SM FEW060 26/22 A2995 RMK AO2 SLP138 T02610222

TAF KRSW
Valid from the 16 at 06:00 until the 17 at 06:00 UTC


160523Z 1606/1706 VRB03KT P6SM FEW030 SCT200
FM161400 35007KT P6SM SCT025 BKN200
FM161800 31010KT P6SM BKN040
FM170200 36004KT P6SM SCT040
No reported NOTAMs for that airfield.



MET'MAP, your aeronautical weather chart ! - Copyright ORBIFLY December 2007 - Disclaimer

ORBIFLY MET'MAP TEAM :

Programming & Development : Alexandra Zaïnal
Concept & Development : Baudouin d'Aumeries
Co-Development & Prog : Marc-Olivier Méhu
Technical & hardware support : Manuel Goepfert

Contact : metmap@orbifly.com




SOURCES & CREDITS :

   NOAA       Earth
Advisory